createdAt,value
2023-05-13T00:02:01.288Z,7.35
2023-05-13T00:04:29.193Z,7.42
2023-05-13T00:06:57.053Z,7.63
2023-05-13T00:09:24.502Z,7.02
2023-05-13T00:11:51.491Z,6.88
2023-05-13T00:14:23.253Z,6.99
2023-05-13T00:16:51.086Z,7.70
2023-05-13T00:19:18.386Z,7.47
2023-05-13T00:21:51.557Z,7.90
2023-05-13T00:24:25.283Z,8.00
2023-05-13T00:26:56.003Z,7.99
2023-05-13T00:29:23.389Z,7.50
2023-05-13T00:31:51.794Z,7.37
2023-05-13T00:34:19.439Z,7.95
2023-05-13T00:36:46.184Z,7.84
2023-05-13T00:39:13.766Z,8.01
2023-05-13T00:41:40.549Z,8.06
2023-05-13T00:44:07.333Z,8.03
2023-05-13T00:46:34.211Z,7.95
2023-05-13T00:49:01.451Z,8.06
2023-05-13T00:51:28.236Z,8.07
2023-05-13T00:53:56.718Z,8.16
2023-05-13T00:56:28.082Z,8.17
2023-05-13T00:58:55.106Z,8.01
2023-05-13T01:01:43.905Z,8.18
2023-05-13T01:04:16.778Z,8.17
2023-05-13T01:06:49.329Z,8.09
2023-05-13T01:09:27.791Z,8.01
2023-05-13T01:11:56.110Z,7.63
2023-05-13T01:14:29.465Z,8.12
2023-05-13T01:17:01.731Z,7.76
2023-05-13T01:19:52.301Z,8.11
2023-05-13T01:22:19.313Z,8.13
2023-05-13T01:24:46.509Z,7.91
2023-05-13T01:27:14.010Z,8.00
2023-05-13T01:29:41.249Z,8.14
2023-05-13T01:32:09.493Z,7.80
2023-05-13T01:34:37.156Z,8.33
2023-05-13T01:37:06.090Z,8.31
2023-05-13T01:39:42.452Z,7.67
2023-05-13T01:42:29.688Z,7.97
2023-05-13T01:45:10.494Z,8.36
2023-05-13T01:50:34.443Z,7.83
2023-05-13T01:53:02.208Z,7.75
2023-05-13T01:55:29.067Z,8.22
2023-05-13T01:57:55.762Z,8.31
2023-05-13T02:00:22.897Z,8.49
2023-05-13T02:02:50.010Z,8.48
2023-05-13T02:05:17.132Z,8.28
2023-05-13T02:07:44.427Z,8.02
2023-05-13T02:10:11.884Z,7.67
2023-05-13T02:12:38.955Z,7.74
2023-05-13T02:15:06.251Z,7.79
2023-05-13T02:17:33.290Z,7.90
2023-05-13T02:20:00.191Z,7.47
2023-05-13T02:22:27.238Z,8.03
2023-05-13T02:24:54.141Z,7.73
2023-05-13T02:27:21.384Z,7.48
2023-05-13T02:29:48.229Z,7.69
2023-05-13T02:32:17.972Z,7.99
2023-05-13T02:34:44.900Z,7.94
2023-05-13T02:37:17.307Z,8.05
2023-05-13T02:39:44.580Z,8.16
2023-05-13T02:42:11.444Z,8.19
2023-05-13T02:44:38.179Z,7.65
2023-05-13T02:47:05.612Z,7.55
2023-05-13T02:49:33.102Z,7.94
2023-05-13T02:52:00.261Z,7.42
2023-05-13T02:54:27.556Z,7.83
2023-05-13T02:56:55.976Z,7.22
2023-05-13T02:59:22.863Z,7.72
2023-05-13T03:01:49.920Z,7.84
2023-05-13T03:04:16.754Z,8.15
2023-05-13T03:06:53.165Z,7.67
2023-05-13T03:09:19.940Z,8.07
2023-05-13T03:11:47.069Z,8.08
2023-05-13T03:14:13.892Z,8.16
2023-05-13T03:16:40.892Z,8.59
2023-05-13T03:19:07.794Z,8.55
2023-05-13T03:21:35.008Z,8.83
2023-05-13T03:24:01.726Z,8.77
2023-05-13T03:26:28.393Z,8.75
2023-05-13T03:28:55.142Z,8.46
2023-05-13T03:31:22.032Z,8.71
2023-05-13T03:33:48.965Z,8.36
2023-05-13T03:36:15.844Z,8.41
2023-05-13T03:38:42.656Z,8.68
2023-05-13T03:41:09.449Z,8.66
2023-05-13T03:43:36.262Z,8.70
2023-05-13T03:46:03.791Z,8.36
2023-05-13T03:48:30.586Z,8.65
2023-05-13T03:50:57.507Z,8.72
2023-05-13T03:53:24.300Z,8.68
2023-05-13T03:55:51.467Z,8.81
2023-05-13T03:58:19.122Z,8.25
2023-05-13T04:00:46.943Z,8.77
2023-05-13T04:03:16.354Z,8.59
2023-05-13T04:05:46.327Z,8.59
2023-05-13T04:08:13.461Z,8.50
2023-05-13T04:10:40.403Z,8.70
2023-05-13T04:13:07.666Z,8.80
2023-05-13T04:15:34.582Z,9.01
2023-05-13T04:18:01.321Z,9.20
2023-05-13T04:20:29.192Z,9.26
2023-05-13T04:22:56.248Z,9.18
2023-05-13T04:25:23.119Z,9.44
2023-05-13T04:27:49.818Z,9.63
2023-05-13T04:30:16.794Z,9.53
2023-05-13T04:32:44.230Z,9.61
2023-05-13T04:35:10.934Z,9.73
2023-05-13T04:37:37.939Z,9.60
2023-05-13T04:40:05.374Z,9.76
2023-05-13T04:42:31.989Z,9.90
2023-05-13T04:44:59.014Z,10.30
2023-05-13T04:47:25.984Z,10.90
2023-05-13T04:49:53.064Z,11.17
2023-05-13T04:52:20.994Z,11.70
2023-05-13T04:54:47.809Z,11.40
2023-05-13T04:57:15.170Z,11.06
2023-05-13T04:59:42.112Z,10.74
2023-05-13T05:02:08.862Z,10.96
2023-05-13T05:04:36.014Z,10.70
2023-05-13T05:07:02.935Z,10.71
2023-05-13T05:09:30.347Z,10.90
2023-05-13T05:11:57.223Z,11.19
2023-05-13T05:14:24.041Z,11.13
2023-05-13T05:16:50.756Z,11.35
2023-05-13T05:19:17.656Z,11.32
2023-05-13T05:21:44.709Z,11.26
2023-05-13T05:24:11.541Z,11.41
2023-05-13T05:26:38.286Z,11.19
2023-05-13T05:29:04.987Z,11.53
2023-05-13T05:31:32.011Z,11.70
2023-05-13T05:33:59.243Z,11.74
2023-05-13T05:36:26.169Z,11.61
2023-05-13T05:38:53.066Z,11.78
2023-05-13T05:41:20.016Z,11.61
2023-05-13T05:43:47.075Z,11.78
2023-05-13T05:46:14.115Z,11.57
2023-05-13T05:48:40.930Z,11.96
2023-05-13T05:51:07.745Z,11.87
2023-05-13T05:53:35.760Z,11.72
2023-05-13T05:56:02.404Z,11.89
2023-05-13T05:58:29.213Z,11.49
2023-05-13T06:00:57.132Z,12.11
2023-05-13T06:03:24.309Z,11.86
2023-05-13T06:05:51.151Z,11.44
2023-05-13T06:08:17.824Z,11.86
2023-05-13T06:10:45.347Z,11.86
2023-05-13T06:13:12.203Z,11.69
2023-05-13T06:15:39.100Z,11.89
2023-05-13T06:18:06.158Z,12.00
2023-05-13T06:20:33.259Z,12.03
2023-05-13T06:23:00.646Z,11.87
2023-05-13T06:25:27.609Z,11.84
2023-05-13T06:27:54.530Z,11.81
2023-05-13T06:30:21.864Z,11.76
2023-05-13T06:33:00.071Z,11.75
2023-05-13T06:35:28.278Z,11.68
2023-05-13T06:37:55.179Z,11.52
2023-05-13T06:40:22.055Z,12.07
2023-05-13T06:42:48.970Z,11.88
2023-05-13T06:45:15.856Z,11.76
2023-05-13T06:47:42.779Z,11.73
2023-05-13T06:50:09.936Z,11.61
2023-05-13T06:52:36.723Z,12.08
2023-05-13T06:55:03.673Z,12.78
2023-05-13T06:57:41.771Z,12.61
2023-05-13T07:00:09.932Z,13.26
2023-05-13T07:02:36.659Z,13.39
2023-05-13T07:05:03.540Z,13.29
2023-05-13T07:07:30.212Z,13.62
2023-05-13T07:09:57.066Z,13.81
2023-05-13T07:12:24.107Z,14.00
2023-05-13T07:14:51.018Z,14.15
2023-05-13T07:17:18.144Z,13.96
2023-05-13T07:19:45.139Z,13.97
2023-05-13T07:22:11.836Z,14.09
2023-05-13T07:24:38.998Z,13.96
2023-05-13T07:27:05.919Z,14.63
2023-05-13T07:29:34.216Z,14.57
2023-05-13T07:32:05.445Z,14.55
2023-05-13T07:34:32.557Z,14.82
2023-05-13T07:36:59.552Z,15.09
2023-05-13T07:39:26.767Z,15.13
2023-05-13T07:41:54.466Z,15.22
2023-05-13T07:44:21.247Z,15.10
2023-05-13T07:46:48.833Z,15.76
2023-05-13T07:49:15.631Z,15.73
2023-05-13T07:51:42.765Z,15.40
2023-05-13T07:54:10.376Z,15.78
2023-05-13T07:56:38.558Z,15.91
2023-05-13T07:59:05.959Z,15.70
2023-05-13T08:01:33.365Z,15.75
2023-05-13T08:04:00.895Z,15.59
2023-05-13T08:06:27.830Z,15.09
2023-05-13T08:08:54.951Z,15.20
2023-05-13T08:11:22.859Z,15.16
2023-05-13T08:13:50.090Z,14.76
2023-05-13T08:16:17.198Z,15.24
2023-05-13T08:18:44.149Z,15.30
2023-05-13T08:21:11.544Z,15.46
2023-05-13T08:23:45.500Z,15.93
2023-05-13T08:26:13.705Z,15.52
2023-05-13T08:28:42.296Z,15.25
2023-05-13T08:31:12.626Z,15.75
2023-05-13T08:33:46.082Z,16.25
2023-05-13T08:36:12.943Z,16.67
2023-05-13T08:38:39.641Z,16.67
2023-05-13T08:41:06.618Z,16.04
2023-05-13T08:43:34.342Z,15.98
2023-05-13T08:46:05.117Z,16.20
2023-05-13T08:48:32.503Z,15.89
2023-05-13T08:50:59.317Z,16.07
2023-05-13T08:53:26.786Z,15.53
2023-05-13T08:55:54.207Z,15.84
2023-05-13T08:58:21.148Z,15.87
2023-05-13T09:00:49.886Z,15.85
2023-05-13T09:03:16.685Z,15.88
2023-05-13T09:05:44.086Z,16.02
2023-05-13T09:08:11.170Z,16.23
2023-05-13T09:10:38.893Z,16.28
2023-05-13T09:13:06.298Z,16.60
2023-05-13T09:15:33.575Z,16.97
2023-05-13T09:18:04.426Z,17.19
2023-05-13T09:20:31.697Z,17.26
2023-05-13T09:22:59.392Z,17.54
2023-05-13T09:25:27.546Z,17.43
2023-05-13T09:27:59.510Z,17.40
2023-05-13T09:30:26.910Z,17.53
2023-05-13T09:33:10.483Z,17.56
2023-05-13T09:35:45.703Z,17.61
2023-05-13T09:38:25.662Z,17.60
2023-05-13T09:41:00.911Z,17.79
2023-05-13T09:43:32.382Z,17.63
2023-05-13T09:46:04.941Z,17.59
2023-05-13T09:48:41.445Z,17.84
2023-05-13T09:51:09.075Z,17.65
2023-05-13T09:53:35.877Z,17.86
2023-05-13T09:56:02.724Z,17.51
2023-05-13T09:58:33.273Z,17.68
2023-05-13T10:01:13.990Z,17.53
2023-05-13T10:03:40.751Z,18.08
2023-05-13T10:06:08.278Z,17.99
2023-05-13T10:08:36.764Z,18.03
2023-05-13T10:11:08.688Z,18.27
2023-05-13T10:13:36.294Z,18.70
2023-05-13T10:16:05.554Z,18.00
2023-05-13T10:18:35.429Z,18.71
2023-05-13T10:21:09.125Z,18.82
2023-05-13T10:23:57.254Z,18.79
2023-05-13T10:26:24.692Z,18.65
2023-05-13T10:28:58.848Z,18.78
2023-05-13T10:31:40.322Z,18.81
2023-05-13T10:34:07.571Z,18.98
2023-05-13T10:36:40.645Z,18.74
2023-05-13T10:39:10.275Z,18.41
2023-05-13T10:42:06.196Z,18.56
2023-05-13T10:44:36.338Z,17.89
2023-05-13T10:47:23.888Z,18.64
2023-05-13T10:49:53.953Z,18.93
2023-05-13T10:52:21.047Z,18.98
2023-05-13T10:55:14.667Z,18.86
2023-05-13T10:57:41.682Z,19.36
2023-05-13T11:00:19.889Z,19.36
2023-05-13T11:02:46.987Z,19.89
2023-05-13T11:05:23.187Z,19.92
2023-05-13T11:07:57.250Z,19.50
2023-05-13T11:10:30.172Z,19.81
2023-05-13T11:13:20.548Z,20.01
2023-05-13T11:15:54.644Z,19.84
2023-05-13T11:18:38.285Z,19.81
2023-05-13T11:21:11.571Z,20.13
2023-05-13T11:24:00.353Z,19.83
2023-05-13T11:26:27.274Z,19.05
2023-05-13T11:29:06.390Z,19.32
2023-05-13T11:31:59.257Z,19.39
2023-05-13T11:34:27.320Z,19.49
2023-05-13T11:36:58.307Z,19.69
2023-05-13T11:39:28.804Z,19.83
2023-05-13T11:42:01.682Z,20.32
2023-05-13T11:44:29.024Z,20.07
2023-05-13T11:47:01.537Z,20.19
2023-05-13T11:49:38.753Z,20.04
2023-05-13T11:52:13.174Z,20.16
2023-05-13T11:54:44.035Z,20.43
2023-05-13T11:57:38.367Z,20.73
2023-05-13T12:00:10.403Z,20.86
2023-05-13T12:02:44.562Z,20.89
2023-05-13T12:05:12.055Z,20.68
2023-05-13T12:07:39.700Z,21.74
2023-05-13T12:10:07.991Z,21.90
2023-05-13T12:12:38.052Z,21.36
2023-05-13T12:15:10.764Z,21.17
2023-05-13T12:17:37.640Z,21.37
2023-05-13T12:20:18.878Z,21.17
2023-05-13T12:22:45.378Z,20.78
2023-05-13T12:25:35.109Z,20.80
2023-05-13T12:28:17.909Z,20.58
2023-05-13T12:30:53.720Z,20.45
2023-05-13T12:33:24.090Z,20.28
2023-05-13T12:36:20.119Z,20.47
2023-05-13T12:38:59.595Z,20.41
2023-05-13T12:41:35.483Z,20.51
2023-05-13T12:44:04.386Z,20.57
2023-05-13T12:46:31.496Z,20.75
2023-05-13T12:49:00.181Z,20.51
2023-05-13T12:51:27.465Z,20.53
2023-05-13T12:53:54.624Z,21.23
2023-05-13T12:56:28.669Z,21.34
2023-05-13T12:58:55.777Z,21.09
2023-05-13T13:01:22.965Z,20.85
2023-05-13T13:03:50.037Z,20.43
2023-05-13T13:06:17.400Z,20.46
2023-05-13T13:08:44.158Z,20.64
2023-05-13T13:11:15.080Z,20.37
2023-05-13T13:13:41.805Z,20.52
2023-05-13T13:16:09.380Z,20.66
2023-05-13T13:18:36.276Z,20.86
2023-05-13T13:21:03.277Z,20.39
2023-05-13T13:23:29.884Z,20.66
2023-05-13T13:25:58.447Z,20.92
2023-05-13T13:28:28.778Z,21.42
2023-05-13T13:30:55.456Z,21.66
2023-05-13T13:33:22.509Z,21.07
2023-05-13T13:35:50.052Z,20.95
2023-05-13T13:38:16.651Z,20.89
2023-05-13T13:40:43.238Z,20.64
2023-05-13T13:43:09.871Z,20.82
2023-05-13T13:45:36.734Z,20.76
2023-05-13T13:48:03.454Z,21.18
2023-05-13T13:50:30.285Z,21.12
2023-05-13T13:53:00.411Z,21.17
2023-05-13T13:55:27.024Z,21.04
2023-05-13T13:57:53.778Z,20.88
2023-05-13T14:00:20.882Z,21.10
2023-05-13T14:02:48.383Z,21.27
2023-05-13T14:05:16.233Z,21.71
2023-05-13T14:07:42.944Z,21.86
2023-05-13T14:10:10.143Z,22.01
2023-05-13T14:12:37.904Z,21.47
2023-05-13T14:15:05.074Z,21.57
2023-05-13T14:17:33.760Z,21.41
2023-05-13T14:20:00.621Z,21.00
2023-05-13T14:22:27.513Z,20.83
2023-05-13T14:24:54.418Z,20.81
2023-05-13T14:27:25.091Z,20.65
2023-05-13T14:29:52.050Z,20.34
2023-05-13T14:32:18.695Z,20.43
2023-05-13T14:34:46.245Z,20.68
2023-05-13T14:37:14.797Z,20.57
2023-05-13T14:39:41.373Z,20.66
2023-05-13T14:42:08.005Z,20.92
2023-05-13T14:44:36.905Z,21.26
2023-05-13T14:47:03.806Z,20.86
2023-05-13T14:49:30.648Z,20.86
2023-05-13T14:51:57.480Z,21.24
2023-05-13T14:54:24.162Z,21.27
2023-05-13T14:56:52.192Z,20.94
2023-05-13T14:59:19.085Z,20.90
2023-05-13T15:01:45.992Z,20.73
2023-05-13T15:04:12.780Z,20.44
2023-05-13T15:06:39.445Z,20.50
2023-05-13T15:09:09.731Z,20.34
2023-05-13T15:11:39.999Z,20.25
2023-05-13T15:14:07.838Z,20.37
2023-05-13T15:16:34.558Z,20.53
2023-05-13T15:19:01.315Z,20.59
2023-05-13T15:21:28.014Z,20.61
2023-05-13T15:23:54.612Z,20.44
2023-05-13T15:26:22.368Z,20.16
2023-05-13T15:28:48.968Z,20.22
2023-05-13T15:31:17.812Z,20.20
2023-05-13T15:33:45.351Z,20.13
2023-05-13T15:36:12.597Z,20.05
2023-05-13T15:38:39.257Z,19.84
2023-05-13T15:41:05.978Z,19.93
2023-05-13T15:43:32.795Z,19.84
2023-05-13T15:46:00.406Z,19.98
2023-05-13T15:48:27.449Z,20.02
2023-05-13T15:50:54.352Z,19.80
2023-05-13T15:53:20.992Z,19.71
2023-05-13T15:55:47.644Z,19.05
2023-05-13T15:58:14.210Z,18.49
2023-05-13T16:00:41.512Z,18.30
2023-05-13T16:03:11.034Z,18.35
2023-05-13T16:05:38.870Z,18.40
2023-05-13T16:08:05.628Z,17.98
2023-05-13T16:10:32.299Z,17.69
2023-05-13T16:12:58.997Z,17.63
2023-05-13T16:15:25.792Z,17.62
2023-05-13T16:17:52.524Z,17.61
2023-05-13T16:20:19.542Z,17.67
2023-05-13T16:22:46.428Z,17.48
2023-05-13T16:25:13.115Z,17.32
2023-05-13T16:27:43.562Z,17.40
2023-05-13T16:30:10.620Z,17.12
2023-05-13T16:32:37.632Z,17.16
2023-05-13T16:35:05.706Z,17.01
2023-05-13T16:37:35.248Z,16.91
2023-05-13T16:40:02.213Z,16.89
2023-05-13T16:42:28.991Z,16.92
2023-05-13T16:44:56.052Z,16.87
2023-05-13T16:47:22.883Z,16.77
2023-05-13T16:49:50.361Z,16.36
2023-05-13T16:52:17.158Z,16.64
2023-05-13T16:54:44.740Z,16.65
2023-05-13T16:57:11.490Z,16.51
2023-05-13T16:59:38.365Z,16.54
2023-05-13T17:02:05.301Z,16.51
2023-05-13T17:04:31.891Z,16.45
2023-05-13T17:06:59.410Z,16.46
2023-05-13T17:09:26.438Z,16.36
2023-05-13T17:11:55.404Z,16.36
2023-05-13T17:14:23.362Z,16.12
2023-05-13T17:16:50.331Z,16.12
2023-05-13T17:19:17.597Z,16.14
2023-05-13T17:21:44.399Z,16.26
2023-05-13T17:24:11.176Z,16.29
2023-05-13T17:26:38.929Z,16.29
2023-05-13T17:29:06.053Z,16.20
2023-05-13T17:31:33.257Z,15.89
2023-05-13T17:34:00.073Z,15.84
2023-05-13T17:36:26.828Z,15.77
2023-05-13T17:38:53.498Z,15.67
2023-05-13T17:41:20.209Z,15.68
2023-05-13T17:43:46.823Z,15.56
2023-05-13T17:46:13.439Z,15.59
2023-05-13T17:48:40.206Z,15.76
2023-05-13T17:51:07.340Z,15.78
2023-05-13T17:53:34.986Z,15.85
2023-05-13T17:56:01.861Z,15.82
2023-05-13T17:58:28.460Z,15.77
2023-05-13T18:00:55.519Z,15.82
2023-05-13T18:03:22.403Z,15.76
2023-05-13T18:05:49.250Z,15.70
2023-05-13T18:08:16.030Z,15.56
2023-05-13T18:10:42.822Z,15.64
2023-05-13T18:13:09.446Z,15.41
2023-05-13T18:15:36.494Z,15.43
2023-05-13T18:18:03.828Z,15.26
2023-05-13T18:20:31.998Z,15.29
2023-05-13T18:22:59.390Z,15.04
2023-05-13T18:25:26.223Z,15.09
2023-05-13T18:27:52.900Z,15.30
2023-05-13T18:30:19.835Z,15.15
2023-05-13T18:32:46.583Z,14.86
2023-05-13T18:35:13.408Z,15.21
2023-05-13T18:37:40.051Z,14.80
2023-05-13T18:40:07.269Z,15.13
2023-05-13T18:42:34.026Z,15.15
2023-05-13T18:45:00.796Z,15.10
2023-05-13T18:47:27.454Z,15.05
2023-05-13T18:49:54.284Z,15.00
2023-05-13T18:52:21.367Z,15.04
2023-05-13T18:54:48.251Z,15.00
2023-05-13T18:57:16.083Z,14.93
2023-05-13T18:59:53.043Z,14.92
2023-05-13T19:02:19.977Z,14.89
2023-05-13T19:04:46.701Z,14.54
2023-05-13T19:07:14.019Z,14.66
2023-05-13T19:09:40.910Z,14.66
2023-05-13T19:12:08.679Z,14.65
2023-05-13T19:14:37.732Z,14.76
2023-05-13T19:17:04.525Z,14.61
2023-05-13T19:19:31.322Z,14.74
2023-05-13T19:21:58.215Z,14.75
2023-05-13T19:24:25.027Z,14.56
2023-05-13T19:26:51.685Z,14.62
2023-05-13T19:29:18.426Z,14.57
2023-05-13T19:31:45.208Z,14.37
2023-05-13T19:34:11.969Z,14.48
2023-05-13T19:36:38.887Z,14.37
2023-05-13T19:39:08.903Z,14.33
2023-05-13T19:41:35.580Z,14.21
2023-05-13T19:44:02.201Z,14.42
2023-05-13T19:46:28.961Z,14.41
2023-05-13T19:48:55.650Z,14.32
2023-05-13T19:51:22.271Z,14.25
2023-05-13T19:53:49.041Z,14.32
2023-05-13T19:56:15.808Z,14.22
2023-05-13T19:58:42.411Z,14.16
2023-05-13T20:01:09.238Z,14.24
2023-05-13T20:03:35.945Z,14.18
2023-05-13T20:06:02.834Z,14.18
2023-05-13T20:08:31.567Z,14.19
2023-05-13T20:10:58.217Z,14.12
2023-05-13T20:13:24.950Z,14.12
2023-05-13T20:15:52.437Z,13.93
2023-05-13T20:18:19.288Z,13.91
2023-05-13T20:20:47.097Z,14.00
2023-05-13T20:23:14.636Z,13.96
2023-05-13T20:25:41.540Z,13.98
2023-05-13T20:28:08.241Z,13.89
2023-05-13T20:30:34.892Z,13.92
2023-05-13T20:33:01.515Z,13.89
2023-05-13T20:35:28.187Z,13.89
2023-05-13T20:37:57.269Z,13.89
2023-05-13T20:40:24.352Z,13.78
2023-05-13T20:42:51.201Z,13.86
2023-05-13T20:45:17.909Z,13.86
2023-05-13T20:47:44.548Z,13.83
2023-05-13T20:50:11.586Z,13.72
2023-05-13T20:52:38.230Z,13.77
2023-05-13T20:55:05.470Z,13.76
2023-05-13T20:57:32.151Z,13.73
2023-05-13T21:00:00.015Z,13.73
2023-05-13T21:02:26.718Z,13.75
2023-05-13T21:04:53.330Z,13.79
2023-05-13T21:07:20.230Z,13.75
2023-05-13T21:09:46.890Z,13.72
2023-05-13T21:12:13.495Z,13.80
2023-05-13T21:14:40.053Z,13.73
2023-05-13T21:17:06.778Z,13.77
2023-05-13T21:19:33.906Z,13.78
2023-05-13T21:22:04.933Z,13.72
2023-05-13T21:24:31.671Z,13.67
2023-05-13T21:26:58.249Z,13.69
2023-05-13T21:29:24.848Z,13.68
2023-05-13T21:31:51.492Z,13.73
2023-05-13T21:34:18.140Z,13.70
2023-05-13T21:36:44.936Z,13.73
2023-05-13T21:39:11.609Z,13.76
2023-05-13T21:41:38.591Z,13.78
2023-05-13T21:44:05.506Z,13.74
2023-05-13T21:46:32.141Z,13.66
2023-05-13T21:49:00.270Z,13.69
2023-05-13T21:51:27.562Z,13.68
2023-05-13T21:53:54.582Z,13.65
2023-05-13T21:56:22.075Z,13.63
2023-05-13T21:58:49.889Z,13.54
2023-05-13T22:01:16.843Z,13.47
2023-05-13T22:03:43.707Z,13.52
2023-05-13T22:06:10.666Z,13.40
2023-05-13T22:08:37.401Z,13.42
2023-05-13T22:11:04.165Z,13.40
2023-05-13T22:13:31.036Z,13.47
2023-05-13T22:15:57.936Z,13.49
2023-05-13T22:18:25.234Z,13.09
2023-05-13T22:20:52.375Z,13.44
2023-05-13T22:23:19.283Z,13.33
2023-05-13T22:25:46.028Z,13.23
2023-05-13T22:28:18.071Z,13.35
2023-05-13T22:30:44.933Z,12.97
2023-05-13T22:33:11.820Z,13.36
2023-05-13T22:35:39.608Z,13.30
2023-05-13T22:38:06.310Z,13.38
2023-05-13T22:40:32.965Z,13.43
2023-05-13T22:42:59.695Z,13.39
2023-05-13T22:45:26.505Z,13.42
2023-05-13T22:47:53.273Z,13.38
2023-05-13T22:50:20.006Z,13.31
2023-05-13T22:52:46.777Z,13.46
2023-05-13T22:55:13.539Z,13.40
2023-05-13T22:57:40.328Z,13.47
2023-05-13T23:00:07.834Z,13.51
2023-05-13T23:02:34.500Z,13.46
2023-05-13T23:05:01.268Z,13.49
2023-05-13T23:07:27.895Z,13.53
2023-05-13T23:09:54.541Z,13.56
2023-05-13T23:12:22.368Z,13.53
2023-05-13T23:14:49.104Z,13.55
2023-05-13T23:17:15.908Z,13.63
2023-05-13T23:19:42.659Z,13.56
2023-05-13T23:22:09.396Z,13.53
2023-05-13T23:24:35.983Z,13.46
2023-05-13T23:27:02.627Z,13.54
2023-05-13T23:29:29.301Z,13.56
2023-05-13T23:31:56.101Z,13.53
2023-05-13T23:34:22.931Z,13.54
2023-05-13T23:36:49.863Z,13.53
2023-05-13T23:39:16.501Z,13.50
2023-05-13T23:41:43.165Z,13.49
2023-05-13T23:44:09.867Z,13.50
2023-05-13T23:46:36.546Z,13.50
2023-05-13T23:49:03.323Z,13.51
2023-05-13T23:51:29.966Z,13.56
2023-05-13T23:53:56.504Z,13.51
2023-05-13T23:56:23.071Z,13.50
2023-05-13T23:58:49.724Z,13.47
